Time;durP1;ratioP1;P1;durP2;ratioP2;P2;SDS_P1;SDS_P2;PMS_P1;PMS_P2;Temp;Humidity;BMP_temperature;BMP_pressure;BME280_temperature;BME280_humidity;BME280_pressure;Samples;Min_cycle;Max_cycle;Signal;HPM_P1;HPM_P2
2024/02/20 00:01:34;;;;;;;47.33;9.10;;;12.50;97.20;;;;;;5047514;28;20033;-49
2024/02/20 00:04:00;;;;;;;47.63;8.63;;;12.50;97.20;;;;;;5047746;28;20029;-49
2024/02/20 00:06:25;;;;;;;36.78;7.72;;;12.40;97.20;;;;;;5047559;28;20067;-49
2024/02/20 00:08:51;;;;;;;39.47;7.72;;;12.50;97.20;;;;;;5047239;28;20033;-49
2024/02/20 00:11:16;;;;;;;58.17;8.80;;;12.40;97.20;;;;;;5045569;28;20032;-49
2024/02/20 00:13:42;;;;;;;46.47;7.10;;;12.40;97.20;;;;;;5045957;28;20087;-49
2024/02/20 00:16:07;;;;;;;38.85;6.85;;;12.40;97.20;;;;;;5013197;28;20052;-49
2024/02/20 00:18:33;;;;;;;34.20;7.15;;;12.40;97.20;;;;;;5047375;28;20040;-49
2024/02/20 00:20:59;;;;;;;41.55;8.23;;;12.40;97.20;;;;;;5046241;28;20132;-49
2024/02/20 00:23:24;;;;;;;35.80;6.93;;;12.40;97.50;;;;;;5046054;28;20495;-49
2024/02/20 00:25:53;;;;;;;36.15;6.88;;;12.30;97.20;;;;;;5047178;28;20112;-49
2024/02/20 00:28:19;;;;;;;48.67;6.30;;;12.30;97.20;;;;;;5046067;28;20108;-49
2024/02/20 00:30:45;;;;;;;38.58;7.80;;;12.30;97.30;;;;;;5045897;28;20055;-49
2024/02/20 00:33:11;;;;;;;38.47;5.93;;;12.30;97.40;;;;;;5045843;28;20033;-49
2024/02/20 00:35:36;;;;;;;31.70;5.90;;;12.30;97.40;;;;;;5045641;28;20033;-49
2024/02/20 00:38:02;;;;;;;32.83;7.05;;;12.30;97.40;;;;;;5025551;28;20037;-49
2024/02/20 00:40:27;;;;;;;26.42;5.70;;;12.30;97.50;;;;;;5027003;28;20034;-50
2024/02/20 00:42:53;;;;;;;33.30;6.47;;;12.20;97.40;;;;;;5026802;28;20034;-49
2024/02/20 00:45:19;;;;;;;32.90;5.53;;;12.30;97.50;;;;;;5025860;28;20079;-49
2024/02/20 00:47:45;;;;;;;29.05;6.40;;;12.20;97.70;;;;;;5009222;28;20033;-49
2024/02/20 00:50:11;;;;;;;31.27;6.13;;;12.20;97.50;;;;;;5025740;28;20025;-49
2024/02/20 00:52:36;;;;;;;23.05;5.80;;;12.20;97.50;;;;;;5025793;28;20034;-49
2024/02/20 00:55:03;;;;;;;33.45;6.30;;;12.20;97.50;;;;;;5025686;28;20061;-50
2024/02/20 00:57:29;;;;;;;21.92;5.00;;;12.20;97.50;;;;;;5026910;28;20090;-50
2024/02/20 00:59:55;;;;;;;29.13;5.68;;;12.20;97.60;;;;;;5009369;28;20030;-49
2024/02/20 01:02:20;;;;;;;24.42;5.20;;;12.20;97.60;;;;;;5025569;28;20026;-49
2024/02/20 01:04:46;;;;;;;34.30;5.35;;;12.20;97.60;;;;;;5025468;28;20080;-49
2024/02/20 01:07:11;;;;;;;32.05;5.38;;;12.10;97.60;;;;;;5025495;28;20052;-49
2024/02/20 01:09:37;;;;;;;21.20;4.47;;;12.10;97.60;;;;;;5026811;28;20029;-49
2024/02/20 01:12:03;;;;;;;26.27;5.53;;;12.10;97.70;;;;;;5025443;28;20148;-49
2024/02/20 01:14:30;;;;;;;21.33;5.20;;;12.10;97.70;;;;;;5025536;28;20025;-49
2024/02/20 01:16:56;;;;;;;25.80;5.30;;;12.10;97.80;;;;;;5009182;28;20026;-50
2024/02/20 01:19:21;;;;;;;23.98;4.82;;;12.10;97.80;;;;;;5025243;28;20057;-49
2024/02/20 01:21:47;;;;;;;15.70;4.15;;;12.10;97.80;;;;;;5025294;28;20026;-49
2024/02/20 01:24:12;;;;;;;26.52;5.20;;;12.00;97.80;;;;;;5026438;28;20037;-49
2024/02/20 01:26:41;;;;;;;24.42;4.55;;;12.10;97.90;;;;;;5026520;28;20084;-49
2024/02/20 01:29:07;;;;;;;24.38;4.47;;;12.00;97.90;;;;;;5025423;28;20022;-49
2024/02/20 01:31:32;;;;;;;18.55;4.20;;;12.00;97.90;;;;;;5008997;28;20033;-49
2024/02/20 01:33:58;;;;;;;19.48;4.03;;;12.00;98.00;;;;;;5026228;28;20149;-49
2024/02/20 01:36:24;;;;;;;15.43;3.75;;;12.00;98.00;;;;;;5026270;28;20091;-49
2024/02/20 01:38:50;;;;;;;14.23;3.42;;;12.00;98.00;;;;;;5026453;28;20038;-49
2024/02/20 01:41:16;;;;;;;18.50;4.10;;;12.00;98.00;;;;;;5025299;28;20105;-49
2024/02/20 01:43:41;;;;;;;18.08;4.47;;;11.90;98.10;;;;;;5008717;28;20066;-50
2024/02/20 01:46:08;;;;;;;18.60;3.78;;;11.90;98.10;;;;;;5008793;28;20368;-50
2024/02/20 01:48:33;;;;;;;18.08;3.42;;;11.90;98.10;;;;;;5025008;28;20069;-49
2024/02/20 01:50:59;;;;;;;16.35;3.55;;;11.90;98.20;;;;;;5008720;28;20099;-49
2024/02/20 01:53:24;;;;;;;22.20;3.53;;;11.90;98.10;;;;;;5025043;28;20030;-49
2024/02/20 01:55:50;;;;;;;18.63;3.47;;;11.90;98.10;;;;;;5024950;28;20121;-49
2024/02/20 01:58:15;;;;;;;17.52;3.85;;;11.90;98.10;;;;;;5024966;28;20057;-49
2024/02/20 02:00:41;;;;;;;8.23;3.08;;;11.80;98.10;;;;;;5026339;28;20085;-49
2024/02/20 02:03:06;;;;;;;18.67;3.03;;;11.80;98.10;;;;;;5026281;28;20106;-49
2024/02/20 02:05:32;;;;;;;13.07;2.80;;;11.80;98.10;;;;;;4992248;28;20154;-49
2024/02/20 02:08:00;;;;;;;14.68;3.05;;;11.80;98.10;;;;;;5026311;28;20026;-49
2024/02/20 02:10:26;;;;;;;14.93;3.15;;;11.80;98.10;;;;;;5024700;28;20030;-49
2024/02/20 02:12:52;;;;;;;20.65;3.42;;;11.80;98.10;;;;;;5024919;28;20037;-49
2024/02/20 02:15:17;;;;;;;11.57;2.65;;;11.80;98.10;;;;;;5026034;28;20034;-49
2024/02/20 02:17:43;;;;;;;15.63;3.08;;;11.80;98.10;;;;;;5024735;28;20085;-49
2024/02/20 02:20:09;;;;;;;16.48;3.38;;;11.80;98.10;;;;;;5026015;28;20045;-49
2024/02/20 02:22:35;;;;;;;8.30;2.35;;;11.80;98.10;;;;;;5024698;28;20056;-49
2024/02/20 02:25:00;;;;;;;11.63;3.00;;;11.80;98.10;;;;;;5024922;28;20034;-49
2024/02/20 02:27:26;;;;;;;13.60;2.60;;;11.80;98.10;;;;;;5024753;28;20033;-49
2024/02/20 02:29:52;;;;;;;9.82;2.25;;;11.80;98.00;;;;;;5025994;28;20477;-49
2024/02/20 02:32:18;;;;;;;7.88;2.08;;;11.80;97.90;;;;;;5026119;28;20029;-49
2024/02/20 02:34:44;;;;;;;6.78;2.28;;;11.80;97.90;;;;;;5011832;28;20042;-49
2024/02/20 02:37:10;;;;;;;7.57;2.63;;;11.70;97.90;;;;;;4995685;28;20089;-49
2024/02/20 02:39:36;;;;;;;9.73;2.70;;;11.70;98.00;;;;;;5028037;28;20041;-49
2024/02/20 02:42:01;;;;;;;11.73;2.65;;;11.70;98.20;;;;;;5011766;28;20086;-49
2024/02/20 02:44:27;;;;;;;9.88;2.63;;;11.70;98.00;;;;;;5029313;28;20026;-49
2024/02/20 02:46:52;;;;;;;13.15;2.47;;;11.70;97.90;;;;;;5029298;28;20036;-49
2024/02/20 02:49:18;;;;;;;8.43;2.20;;;11.70;97.90;;;;;;5011704;28;20057;-50
2024/02/20 02:51:43;;;;;;;11.68;2.65;;;11.70;98.20;;;;;;5029178;28;20037;-50
2024/02/20 02:54:09;;;;;;;6.05;1.90;;;11.70;97.90;;;;;;5029074;28;20030;-49
2024/02/20 02:56:36;;;;;;;10.50;2.40;;;11.70;97.90;;;;;;5027774;28;20022;-49
2024/02/20 02:59:03;;;;;;;13.07;2.50;;;11.60;97.90;;;;;;5027758;28;20041;-49
2024/02/20 03:01:29;;;;;;;5.75;1.85;;;11.60;97.90;;;;;;5029111;28;20021;-49
2024/02/20 03:03:55;;;;;;;6.75;2.03;;;11.60;97.80;;;;;;5029032;28;20030;-49
2024/02/20 03:06:20;;;;;;;13.23;2.70;;;11.60;97.90;;;;;;5027691;28;20026;-49
2024/02/20 03:08:47;;;;;;;9.40;2.08;;;11.60;97.90;;;;;;5028818;28;20030;-49
2024/02/20 03:11:13;;;;;;;5.72;2.10;;;11.60;97.90;;;;;;5027730;28;20042;-50
2024/02/20 03:13:39;;;;;;;6.20;2.30;;;11.60;97.90;;;;;;5027359;28;20060;-49
2024/02/20 03:16:05;;;;;;;7.85;2.08;;;11.60;97.90;;;;;;5027418;28;20030;-49
2024/02/20 03:18:36;;;;;;;7.38;2.35;;;11.60;97.90;;;;;;5044082;28;20030;-49
2024/02/20 03:21:01;;;;;;;8.15;2.10;;;11.60;98.00;;;;;;5027701;28;20049;-49
2024/02/20 03:23:28;;;;;;;5.80;2.25;;;11.50;98.00;;;;;;5027514;28;20022;-49
2024/02/20 03:25:53;;;;;;;9.05;2.30;;;11.60;98.00;;;;;;5027127;28;20034;-49
2024/02/20 03:28:19;;;;;;;6.40;1.98;;;11.60;98.00;;;;;;5027334;28;20034;-49
2024/02/20 03:30:45;;;;;;;6.95;2.00;;;11.60;98.00;;;;;;5028364;28;20038;-49
2024/02/20 03:33:10;;;;;;;7.10;1.88;;;11.50;98.00;;;;;;5028373;28;20033;-50
2024/02/20 03:35:36;;;;;;;6.43;2.25;;;11.50;98.00;;;;;;5028328;28;20539;-49
2024/02/20 03:38:02;;;;;;;8.02;2.15;;;11.50;98.00;;;;;;5010622;28;20369;-49
2024/02/20 03:40:27;;;;;;;8.25;1.58;;;11.50;98.00;;;;;;5043467;28;20029;-49
2024/02/20 03:42:53;;;;;;;5.70;2.00;;;11.50;98.00;;;;;;5026938;28;20030;-50
2024/02/20 03:45:19;;;;;;;6.40;1.77;;;11.50;98.00;;;;;;5025556;28;20131;-50
2024/02/20 03:47:44;;;;;;;9.27;1.77;;;11.50;98.00;;;;;;5010675;28;20026;-49
2024/02/20 03:50:10;;;;;;;8.85;1.98;;;11.40;98.00;;;;;;5028057;28;20030;-50
2024/02/20 03:52:36;;;;;;;3.88;1.60;;;11.40;98.00;;;;;;5026700;28;20075;-49
2024/02/20 03:55:01;;;;;;;5.40;1.83;;;11.40;98.10;;;;;;5028001;28;20030;-50
2024/02/20 03:57:27;;;;;;;9.25;1.90;;;11.50;98.40;;;;;;5010122;28;20046;-50
2024/02/20 03:59:55;;;;;;;6.10;2.15;;;11.40;98.10;;;;;;5027893;28;20030;-49
2024/02/20 04:02:21;;;;;;;4.00;1.52;;;11.40;98.10;;;;;;5027870;28;20032;-50
2024/02/20 04:04:46;;;;;;;5.68;2.30;;;11.40;98.10;;;;;;5026491;28;20086;-50
2024/02/20 04:07:12;;;;;;;5.57;1.60;;;11.40;98.10;;;;;;5027796;28;20034;-49
2024/02/20 04:09:37;;;;;;;5.65;1.70;;;11.40;98.10;;;;;;5027732;28;20030;-50
2024/02/20 04:12:03;;;;;;;4.43;1.80;;;11.50;98.00;;;;;;5010083;28;20038;-49
2024/02/20 04:14:29;;;;;;;6.90;1.40;;;11.40;98.00;;;;;;5027723;28;20037;-49
2024/02/20 04:16:54;;;;;;;4.97;1.55;;;11.40;98.00;;;;;;5026290;28;20030;-49
2024/02/20 04:19:20;;;;;;;5.80;1.50;;;11.40;98.10;;;;;;5027518;28;20073;-49
2024/02/20 04:21:46;;;;;;;7.80;1.60;;;11.40;98.10;;;;;;4993744;28;20125;-49
2024/02/20 04:24:11;;;;;;;3.08;1.15;;;11.40;98.10;;;;;;5027443;28;20025;-49
2024/02/20 04:26:37;;;;;;;2.35;1.48;;;11.40;98.10;;;;;;5027531;28;20041;-50
2024/02/20 04:29:02;;;;;;;2.65;1.40;;;11.40;98.10;;;;;;5026265;28;20033;-54
2024/02/20 04:31:28;;;;;;;4.65;1.45;;;11.40;98.10;;;;;;5027174;28;20032;-49
2024/02/20 04:33:53;;;;;;;4.88;1.42;;;11.40;98.10;;;;;;5026057;28;20040;-49
2024/02/20 04:36:20;;;;;;;4.95;1.40;;;11.30;98.10;;;;;;5025711;28;20021;-50
2024/02/20 04:38:46;;;;;;;4.28;1.45;;;11.40;98.20;;;;;;5010025;28;20045;-49
2024/02/20 04:41:11;;;;;;;6.75;1.48;;;11.40;98.20;;;;;;5027050;28;20026;-50
2024/02/20 04:43:37;;;;;;;6.90;1.42;;;11.30;98.20;;;;;;5025784;28;20022;-49
2024/02/20 04:46:05;;;;;;;4.05;1.45;;;11.30;98.50;;;;;;5025978;28;20044;-49
2024/02/20 04:48:31;;;;;;;3.60;1.17;;;11.30;98.20;;;;;;5025880;28;20022;-49
2024/02/20 04:50:57;;;;;;;6.22;1.60;;;11.30;98.20;;;;;;5027125;28;20076;-49
2024/02/20 04:53:22;;;;;;;4.68;1.20;;;11.30;98.30;;;;;;5025682;28;20077;-49
2024/02/20 04:55:48;;;;;;;3.58;1.50;;;11.30;98.30;;;;;;5025340;28;20488;-49
2024/02/20 04:58:13;;;;;;;4.32;1.23;;;11.30;98.40;;;;;;5025488;28;20029;-49
2024/02/20 05:00:39;;;;;;;5.55;1.50;;;11.30;98.50;;;;;;5025523;28;20034;-49
2024/02/20 05:03:04;;;;;;;4.05;1.10;;;11.30;98.40;;;;;;5025618;28;20030;-49
2024/02/20 05:05:31;;;;;;;4.65;1.45;;;11.20;98.50;;;;;;5026958;28;20089;-49
2024/02/20 05:07:57;;;;;;;5.85;1.40;;;11.30;98.50;;;;;;5026846;28;20053;-49
2024/02/20 05:10:22;;;;;;;5.93;1.33;;;11.20;98.50;;;;;;5026685;28;20037;-49
2024/02/20 05:12:48;;;;;;;2.92;1.13;;;11.20;98.60;;;;;;5026482;28;20398;-49
2024/02/20 05:15:13;;;;;;;4.50;1.52;;;11.20;98.60;;;;;;5025295;28;20034;-49
2024/02/20 05:17:40;;;;;;;2.72;1.13;;;11.20;98.70;;;;;;5009066;28;20105;-49
2024/02/20 05:20:06;;;;;;;2.95;1.20;;;11.20;98.70;;;;;;5025412;28;20057;-49
2024/02/20 05:22:32;;;;;;;4.20;1.20;;;11.20;98.70;;;;;;5025449;28;20030;-50
2024/02/20 05:24:58;;;;;;;5.22;1.65;;;11.20;98.70;;;;;;5026625;28;20374;-49
2024/02/20 05:27:23;;;;;;;3.40;1.20;;;11.20;98.70;;;;;;5025165;28;20075;-49
2024/02/20 05:29:49;;;;;;;3.53;1.02;;;11.20;98.80;;;;;;5026541;28;20037;-49
2024/02/20 05:32:15;;;;;;;3.80;1.30;;;11.20;98.80;;;;;;5008984;28;20022;-49
2024/02/20 05:34:41;;;;;;;5.90;1.67;;;11.20;98.80;;;;;;5037747;28;20484;-49
2024/02/20 05:37:06;;;;;;;4.00;1.60;;;11.20;98.80;;;;;;5044211;28;20026;-49
2024/02/20 05:39:32;;;;;;;2.63;1.20;;;11.20;98.70;;;;;;5027077;28;20094;-49
2024/02/20 05:41:57;;;;;;;4.68;1.10;;;11.20;98.80;;;;;;5045426;28;20033;-49
2024/02/20 05:44:23;;;;;;;4.00;1.30;;;11.20;98.80;;;;;;5044691;28;20037;-49
2024/02/20 05:46:48;;;;;;;4.65;1.13;;;11.20;98.80;;;;;;5044793;28;20049;-49
2024/02/20 05:49:14;;;;;;;3.60;0.98;;;11.20;98.80;;;;;;5028201;28;20052;-49
2024/02/20 05:51:39;;;;;;;6.13;1.45;;;11.20;98.80;;;;;;5044764;28;20029;-49
2024/02/20 05:54:05;;;;;;;13.68;1.63;;;11.20;98.80;;;;;;5045758;28;20167;-49
2024/02/20 05:56:32;;;;;;;6.68;2.15;;;11.20;98.80;;;;;;5044543;28;20032;-49
2024/02/20 05:58:57;;;;;;;9.93;2.70;;;11.10;98.80;;;;;;5044790;28;20056;-49
2024/02/20 06:01:23;;;;;;;4.55;1.70;;;11.10;98.80;;;;;;5044724;28;20029;-49
2024/02/20 06:03:49;;;;;;;11.30;2.03;;;11.10;98.80;;;;;;5044696;28;20159;-49
2024/02/20 06:06:14;;;;;;;9.48;2.13;;;11.10;98.80;;;;;;5045948;28;20021;-49
2024/02/20 06:08:44;;;;;;;9.45;2.28;;;11.10;98.90;;;;;;5048175;28;20030;-49
2024/02/20 06:11:17;;;;;;;15.10;2.90;;;11.10;99.00;;;;;;5048613;28;20029;-49
2024/02/20 06:13:43;;;;;;;12.45;2.17;;;11.10;99.00;;;;;;5049292;28;20523;-49
2024/02/20 06:16:08;;;;;;;8.60;2.30;;;11.10;99.00;;;;;;5032000;28;20060;-49
2024/02/20 06:18:34;;;;;;;10.18;2.20;;;11.10;99.00;;;;;;5049607;28;20052;-49
2024/02/20 06:21:00;;;;;;;15.65;2.45;;;11.10;99.00;;;;;;5049491;28;20045;-49
2024/02/20 06:23:26;;;;;;;15.18;3.03;;;11.10;99.10;;;;;;5048055;28;20022;-50
2024/02/20 06:25:51;;;;;;;17.85;3.20;;;11.00;99.40;;;;;;5031612;28;20087;-50
2024/02/20 06:28:19;;;;;;;15.25;2.60;;;11.00;99.10;;;;;;5031627;28;20021;-49
2024/02/20 06:30:47;;;;;;;17.95;3.08;;;11.00;99.10;;;;;;5049407;28;20026;-49
2024/02/20 06:33:13;;;;;;;24.13;2.75;;;11.10;99.20;;;;;;5049505;28;20028;-49
2024/02/20 06:35:38;;;;;;;12.60;2.90;;;11.00;99.10;;;;;;5049079;28;20037;-49
2024/02/20 06:38:04;;;;;;;41.30;5.43;;;11.00;99.20;;;;;;5047933;28;20036;-49
2024/02/20 06:40:29;;;;;;;55.40;5.75;;;11.00;99.30;;;;;;5031526;28;20026;-49
2024/02/20 06:42:55;;;;;;;61.03;7.10;;;11.00;99.30;;;;;;5047917;28;20025;-49
2024/02/20 06:45:20;;;;;;;50.42;6.38;;;11.00;99.50;;;;;;5049155;28;20022;-49
2024/02/20 06:47:49;;;;;;;41.60;5.50;;;11.00;99.60;;;;;;5047875;28;20036;-49
2024/02/20 06:50:16;;;;;;;24.40;5.38;;;11.00;99.70;;;;;;5049071;28;20480;-49
2024/02/20 06:52:43;;;;;;;57.13;5.45;;;11.00;99.70;;;;;;5047878;28;20112;-49
2024/02/20 06:55:08;;;;;;;35.65;4.60;;;11.00;99.70;;;;;;5047099;28;20113;-49
2024/02/20 06:57:35;;;;;;;42.20;5.45;;;11.00;99.60;;;;;;5031140;28;20030;-49
2024/02/20 07:00:04;;;;;;;42.90;5.70;;;11.00;99.60;;;;;;5048964;28;20085;-49
2024/02/20 07:02:30;;;;;;;33.28;6.55;;;11.10;99.60;;;;;;5047663;28;20094;-49
2024/02/20 07:04:55;;;;;;;39.22;5.70;;;11.00;99.60;;;;;;5030749;28;20064;-49
2024/02/20 07:07:21;;;;;;;28.20;4.60;;;11.00;99.60;;;;;;5048612;28;20022;-49
2024/02/20 07:09:47;;;;;;;27.27;4.35;;;11.00;99.60;;;;;;5030783;28;20128;-49
2024/02/20 07:12:12;;;;;;;33.30;5.15;;;11.00;99.60;;;;;;5030690;28;20464;-49
2024/02/20 07:14:38;;;;;;;26.85;3.70;;;11.00;99.90;;;;;;5047324;28;20029;-49
2024/02/20 07:17:04;;;;;;;25.27;3.63;;;11.00;99.50;;;;;;5047766;28;20037;-49
2024/02/20 07:19:29;;;;;;;31.80;4.95;;;11.00;99.50;;;;;;5048135;28;20022;-49
2024/02/20 07:21:55;;;;;;;188.05;17.23;;;11.10;99.60;;;;;;5044253;28;20120;-49
2024/02/20 07:24:21;;;;;;;440.77;44.00;;;11.00;99.50;;;;;;5029530;28;20022;-49
2024/02/20 07:26:46;;;;;;;440.42;46.25;;;11.00;99.50;;;;;;5046516;28;20093;-49
2024/02/20 07:29:12;;;;;;;609.95;65.57;;;11.00;99.40;;;;;;5047159;28;20034;-49
2024/02/20 07:31:38;;;;;;;555.38;54.90;;;11.00;99.30;;;;;;5026797;28;20041;-49
2024/02/20 07:34:04;;;;;;;494.23;51.42;;;10.90;99.20;;;;;;5024791;28;20041;-49
2024/02/20 07:36:29;;;;;;;353.80;37.92;;;10.90;99.20;;;;;;5046800;28;20029;-49
2024/02/20 07:38:55;;;;;;;283.23;27.95;;;10.80;99.20;;;;;;5048039;28;20081;-49
2024/02/20 07:41:20;;;;;;;263.38;28.88;;;10.70;99.20;;;;;;5029758;28;20017;-49
2024/02/20 07:43:46;;;;;;;200.73;22.30;;;10.70;99.30;;;;;;5046994;28;20029;-49
2024/02/20 07:46:15;;;;;;;239.75;23.55;;;10.70;99.40;;;;;;5046898;28;20425;-49
2024/02/20 07:48:42;;;;;;;163.75;17.15;;;10.60;99.50;;;;;;5040386;28;20038;-50
2024/02/20 07:51:09;;;;;;;134.15;13.25;;;10.60;99.50;;;;;;5030760;28;20044;-49
2024/02/20 07:53:35;;;;;;;109.03;10.70;;;10.60;99.60;;;;;;5023087;28;20033;-49
2024/02/20 07:56:02;;;;;;;77.53;9.25;;;10.50;99.70;;;;;;5046982;28;20048;-49
2024/02/20 07:58:28;;;;;;;84.82;8.68;;;10.50;99.80;;;;;;5039047;28;20014;-49
2024/02/20 08:00:54;;;;;;;74.93;7.35;;;10.50;99.80;;;;;;5045797;28;20060;-49
2024/02/20 08:03:23;;;;;;;40.53;7.32;;;10.40;99.90;;;;;;5026262;28;20033;-49
2024/02/20 08:05:49;;;;;;;58.03;7.15;;;10.40;99.90;;;;;;5045040;28;20435;-49
2024/02/20 08:08:15;;;;;;;40.60;7.20;;;10.50;99.90;;;;;;5043843;28;20431;-49
2024/02/20 08:10:40;;;;;;;51.10;6.63;;;10.40;99.90;;;;;;5041193;28;20026;-49
2024/02/20 08:13:06;;;;;;;47.03;5.63;;;10.40;99.90;;;;;;5040773;28;20117;-50
2024/02/20 08:15:31;;;;;;;39.00;4.43;;;10.40;99.90;;;;;;5045409;28;20025;-49
2024/02/20 08:17:57;;;;;;;24.55;3.65;;;10.40;99.90;;;;;;5044753;28;20452;-49
2024/02/20 08:20:22;;;;;;;17.50;3.38;;;10.40;99.90;;;;;;5025859;28;20529;-49
2024/02/20 08:22:48;;;;;;;11.55;2.92;;;10.40;99.90;;;;;;5035698;28;20022;-49
2024/02/20 08:25:14;;;;;;;14.98;2.95;;;10.40;99.90;;;;;;5039109;28;20056;-49
2024/02/20 08:27:39;;;;;;;13.60;3.60;;;10.40;99.90;;;;;;5027071;28;20029;-49
2024/02/20 08:30:07;;;;;;;16.65;2.70;;;10.40;99.90;;;;;;5038019;28;20049;-49
2024/02/20 08:32:33;;;;;;;8.55;2.60;;;10.40;99.90;;;;;;5043008;28;20075;-49
2024/02/20 08:34:58;;;;;;;11.52;3.05;;;10.40;99.90;;;;;;5045377;28;20026;-49
2024/02/20 08:37:24;;;;;;;11.32;2.00;;;10.40;99.90;;;;;;5045014;28;20101;-49
2024/02/20 08:39:50;;;;;;;13.45;2.70;;;10.40;99.90;;;;;;5027105;28;20026;-49
2024/02/20 08:42:16;;;;;;;15.52;2.20;;;10.40;99.80;;;;;;5045085;28;20029;-49
2024/02/20 08:44:42;;;;;;;7.97;2.42;;;10.40;99.80;;;;;;5031188;28;20495;-49
2024/02/20 08:47:07;;;;;;;19.80;2.35;;;10.40;99.90;;;;;;5042142;28;20025;-49
2024/02/20 08:49:33;;;;;;;14.60;2.53;;;10.50;99.70;;;;;;5046159;28;20052;-49
2024/02/20 08:51:58;;;;;;;30.73;4.22;;;10.50;99.50;;;;;;5031188;28;20037;-49
2024/02/20 08:54:24;;;;;;;38.40;5.20;;;10.50;99.70;;;;;;5031303;28;20029;-49
2024/02/20 08:56:49;;;;;;;19.23;3.88;;;10.50;99.40;;;;;;5035113;28;20077;-49
2024/02/20 08:59:15;;;;;;;38.08;4.60;;;10.50;99.30;;;;;;5038189;28;20026;-49
2024/02/20 09:01:40;;;;;;;14.25;2.88;;;10.60;99.40;;;;;;5041140;28;20025;-49
2024/02/20 09:04:08;;;;;;;14.98;2.83;;;10.60;99.30;;;;;;5028749;28;20029;-49
2024/02/20 09:06:33;;;;;;;15.68;2.95;;;10.60;99.10;;;;;;5038228;28;20030;-49
2024/02/20 09:08:59;;;;;;;16.38;2.40;;;10.60;99.10;;;;;;5029083;28;20029;-49
2024/02/20 09:11:24;;;;;;;16.83;2.65;;;10.60;99.10;;;;;;5022885;28;20025;-49
2024/02/20 09:13:50;;;;;;;13.18;2.65;;;10.60;99.00;;;;;;5033932;28;20056;-49
2024/02/20 09:16:15;;;;;;;11.13;2.65;;;10.70;99.00;;;;;;5039424;28;20017;-49
2024/02/20 09:18:41;;;;;;;9.82;2.58;;;10.70;98.90;;;;;;5028753;28;20057;-49
2024/02/20 09:21:07;;;;;;;13.63;2.60;;;10.70;98.90;;;;;;5019571;28;20030;-49
2024/02/20 09:23:36;;;;;;;11.20;2.30;;;10.70;98.70;;;;;;5042804;28;20025;-49
2024/02/20 09:26:02;;;;;;;9.57;1.95;;;10.70;98.70;;;;;;5044386;28;20029;-49
2024/02/20 09:28:28;;;;;;;10.75;2.22;;;10.70;98.70;;;;;;5043212;28;20353;-50
2024/02/20 09:30:53;;;;;;;17.75;2.30;;;10.70;98.50;;;;;;5036497;28;20049;-49
2024/02/20 09:33:19;;;;;;;21.60;3.65;;;10.70;98.30;;;;;;5032406;28;20025;-49
2024/02/20 09:35:44;;;;;;;24.63;2.97;;;10.70;98.20;;;;;;5040440;28;20042;-49
2024/02/20 09:38:12;;;;;;;30.52;3.15;;;10.70;98.10;;;;;;5010310;28;20021;-49
2024/02/20 09:40:38;;;;;;;20.17;3.28;;;10.70;97.70;;;;;;5043303;28;20037;-49
2024/02/20 09:43:03;;;;;;;20.83;3.03;;;10.70;97.40;;;;;;5029059;28;20029;-49
2024/02/20 09:45:29;;;;;;;23.52;3.72;;;10.70;97.50;;;;;;5047681;28;20029;-49
2024/02/20 09:47:54;;;;;;;20.05;3.00;;;10.70;97.50;;;;;;5030792;28;20033;-49
2024/02/20 09:50:20;;;;;;;26.27;3.47;;;10.80;97.50;;;;;;5049245;28;20377;-49
2024/02/20 09:52:55;;;;;;;27.10;3.50;;;10.80;97.30;;;;;;5030938;28;20025;-49
2024/02/20 09:55:22;;;;;;;19.23;3.38;;;10.80;97.10;;;;;;5047358;28;20034;-49
2024/02/20 09:57:49;;;;;;;41.53;4.90;;;10.80;97.20;;;;;;5045213;28;20033;-50
2024/02/20 10:00:15;;;;;;;35.50;4.40;;;10.80;96.70;;;;;;5040398;28;20022;-50
2024/02/20 10:02:43;;;;;;;20.92;3.55;;;10.90;96.60;;;;;;5045108;28;20032;-49
2024/02/20 10:05:10;;;;;;;33.33;3.53;;;10.90;96.60;;;;;;5040780;28;20056;-49
2024/02/20 10:07:38;;;;;;;30.05;3.70;;;10.90;96.60;;;;;;5045049;28;20057;-50
2024/02/20 10:10:09;;;;;;;45.92;4.80;;;10.90;96.40;;;;;;5036010;28;20054;-49
2024/02/20 10:12:39;;;;;;;36.53;4.25;;;10.90;96.40;;;;;;5028026;28;20044;-49
2024/02/20 10:15:13;;;;;;;26.50;3.95;;;10.90;96.40;;;;;;5039103;28;20026;-49
2024/02/20 10:17:38;;;;;;;31.13;3.92;;;10.90;96.30;;;;;;5059459;28;20041;-49
2024/02/20 10:20:11;;;;;;;41.33;4.43;;;10.90;96.30;;;;;;5045973;28;20034;-50
2024/02/20 10:22:40;;;;;;;48.63;4.32;;;10.90;96.30;;;;;;5040792;28;20049;-50
2024/02/20 10:25:08;;;;;;;24.00;4.15;;;10.90;96.30;;;;;;5037953;28;20030;-50
2024/02/20 10:27:36;;;;;;;39.08;5.07;;;11.00;96.30;;;;;;5047288;28;20057;-49
2024/02/20 10:30:05;;;;;;;38.20;4.10;;;10.90;96.10;;;;;;5045349;28;20037;-49
2024/02/20 10:32:34;;;;;;;26.63;4.25;;;11.00;95.90;;;;;;5042224;28;20033;-49
2024/02/20 10:35:07;;;;;;;26.40;4.32;;;11.00;95.90;;;;;;5042893;28;20034;-49
2024/02/20 10:37:32;;;;;;;42.22;4.90;;;11.00;95.90;;;;;;5012134;28;20424;-49
2024/02/20 10:40:04;;;;;;;61.97;6.38;;;11.00;95.80;;;;;;5043038;28;20033;-49
2024/02/20 10:42:31;;;;;;;34.13;5.70;;;11.00;95.70;;;;;;5043498;28;20028;-49
2024/02/20 10:44:57;;;;;;;38.22;5.05;;;11.00;95.50;;;;;;5027295;28;20033;-49
2024/02/20 10:47:23;;;;;;;44.88;4.65;;;11.00;95.70;;;;;;5029458;28;20021;-49
2024/02/20 10:49:49;;;;;;;37.47;5.03;;;11.00;95.30;;;;;;5027323;28;20388;-50
2024/02/20 10:52:14;;;;;;;33.90;4.68;;;11.00;95.10;;;;;;5028777;28;20030;-49
2024/02/20 10:54:40;;;;;;;37.97;3.85;;;11.10;95.10;;;;;;5043847;28;20034;-49
2024/02/20 10:57:06;;;;;;;41.92;5.45;;;11.00;95.20;;;;;;5024934;28;20022;-50
2024/02/20 10:59:31;;;;;;;44.50;4.85;;;11.00;95.20;;;;;;5044166;28;20017;-49
2024/02/20 11:01:57;;;;;;;30.38;4.30;;;11.10;95.20;;;;;;5027494;28;20048;-50
2024/02/20 11:04:22;;;;;;;28.30;4.32;;;11.00;94.90;;;;;;5028144;28;20026;-49
2024/02/20 11:06:48;;;;;;;51.08;6.53;;;11.10;94.90;;;;;;5025060;28;20087;-49
2024/02/20 11:09:14;;;;;;;67.97;8.57;;;11.10;94.70;;;;;;5043643;28;20109;-49
2024/02/20 11:11:39;;;;;;;51.20;6.30;;;11.10;94.70;;;;;;5058770;28;20029;-50
2024/02/20 11:14:07;;;;;;;43.50;6.20;;;11.10;94.50;;;;;;5043464;28;20025;-49
2024/02/20 11:16:34;;;;;;;40.70;5.20;;;11.10;94.40;;;;;;5026505;28;20087;-49
2024/02/20 11:18:59;;;;;;;27.75;4.82;;;11.10;94.10;;;;;;5046861;28;20053;-49
2024/02/20 11:21:29;;;;;;;28.83;4.40;;;11.10;94.10;;;;;;5044736;28;20025;-49
2024/02/20 11:23:54;;;;;;;32.70;4.78;;;11.10;94.10;;;;;;5044111;28;20043;-49
2024/02/20 11:26:30;;;;;;;20.58;3.55;;;11.20;94.20;;;;;;5044723;28;20036;-49
2024/02/20 11:28:56;;;;;;;38.60;5.05;;;11.10;94.00;;;;;;5043590;28;20030;-50
2024/02/20 11:31:28;;;;;;;35.13;3.75;;;11.20;94.00;;;;;;5045144;28;20028;-50
2024/02/20 11:33:55;;;;;;;37.58;5.25;;;11.20;93.80;;;;;;5022530;28;20044;-50
2024/02/20 11:36:20;;;;;;;34.55;4.75;;;11.10;93.60;;;;;;5039553;28;20089;-50
2024/02/20 11:38:56;;;;;;;36.58;4.18;;;11.20;93.60;;;;;;5024767;28;20556;-49
2024/02/20 11:41:22;;;;;;;33.28;4.85;;;11.20;93.40;;;;;;5043370;28;20048;-49
2024/02/20 11:43:48;;;;;;;50.85;5.93;;;11.20;93.40;;;;;;5029158;28;20113;-49
2024/02/20 11:46:14;;;;;;;66.32;8.00;;;11.20;93.20;;;;;;5051753;28;20025;-49
2024/02/20 11:48:39;;;;;;;70.93;7.28;;;11.20;93.10;;;;;;5042523;28;20029;-50
2024/02/20 11:51:07;;;;;;;50.92;6.57;;;11.30;93.10;;;;;;5025435;28;20026;-49
2024/02/20 11:53:32;;;;;;;51.25;5.63;;;11.30;93.00;;;;;;5040800;28;20072;-50
2024/02/20 11:55:58;;;;;;;35.47;4.28;;;11.30;92.90;;;;;;5041729;28;20025;-49
2024/02/20 11:58:24;;;;;;;27.58;4.30;;;11.30;93.00;;;;;;5039101;28;20021;-49
2024/02/20 12:00:51;;;;;;;49.85;4.55;;;11.30;93.00;;;;;;5009876;28;20396;-49
2024/02/20 12:03:30;;;;;;;76.82;9.35;;;11.30;92.90;;;;;;5043228;28;20025;-50
2024/02/20 12:06:00;;;;;;;56.63;5.57;;;11.30;93.00;;;;;;5040855;28;20113;-49
2024/02/20 12:08:31;;;;;;;63.78;5.85;;;11.40;93.00;;;;;;5041003;28;20391;-49
2024/02/20 12:11:03;;;;;;;34.10;5.60;;;11.40;92.90;;;;;;5045408;28;20128;-49
2024/02/20 12:13:29;;;;;;;39.83;4.90;;;11.50;92.90;;;;;;5042290;28;20574;-49
2024/02/20 12:15:55;;;;;;;33.28;4.07;;;11.40;92.70;;;;;;5034467;28;20037;-49
2024/02/20 12:18:27;;;;;;;50.80;5.10;;;11.50;92.60;;;;;;5027404;28;20029;-49
2024/02/20 12:21:08;;;;;;;137.20;9.88;;;11.50;92.50;;;;;;5042082;28;20030;-49
2024/02/20 12:23:37;;;;;;;68.80;6.63;;;11.50;92.70;;;;;;5033871;28;20022;-49
2024/02/20 12:26:06;;;;;;;42.25;4.95;;;11.50;92.70;;;;;;5039444;28;20056;-50
2024/02/20 12:28:32;;;;;;;41.20;5.53;;;11.60;92.50;;;;;;5027687;28;20030;-49
2024/02/20 12:30:58;;;;;;;41.08;3.88;;;11.60;92.40;;;;;;5038332;28;20030;-50
2024/02/20 12:33:24;;;;;;;37.40;5.18;;;11.60;92.40;;;;;;5038652;28;20103;-50